createdAt,value
2019-01-25T00:01:15.930Z,-3.20
2019-01-25T00:03:45.450Z,-3.20
2019-01-25T00:06:14.701Z,-3.20
2019-01-25T00:08:44.134Z,-3.20
2019-01-25T00:11:13.726Z,-3.20
2019-01-25T00:13:42.931Z,-3.20
2019-01-25T00:16:12.263Z,-3.20
2019-01-25T00:18:41.705Z,-3.20
2019-01-25T00:21:11.169Z,-3.20
2019-01-25T00:23:40.336Z,-3.20
2019-01-25T00:26:09.460Z,-3.20
2019-01-25T00:28:38.777Z,-3.20
2019-01-25T00:31:08.312Z,-3.20
2019-01-25T00:33:37.495Z,-3.20
2019-01-25T00:36:06.670Z,-3.30
2019-01-25T00:38:35.933Z,-3.30
2019-01-25T00:41:05.460Z,-3.30
2019-01-25T00:43:34.622Z,-3.30
2019-01-25T00:46:04.129Z,-3.30
2019-01-25T00:48:33.259Z,-3.40
2019-01-25T00:51:02.511Z,-3.40
2019-01-25T00:53:31.921Z,-3.40
2019-01-25T00:56:01.399Z,-3.40
2019-01-25T00:58:30.488Z,-3.50
2019-01-25T01:01:00.073Z,-3.50
2019-01-25T01:03:29.395Z,-3.50
2019-01-25T01:05:58.668Z,-3.50
2019-01-25T01:08:28.459Z,-3.50
2019-01-25T01:10:58.000Z,-3.50
2019-01-25T01:13:27.228Z,-3.50
2019-01-25T01:15:56.448Z,-3.50
2019-01-25T01:18:25.901Z,-3.50
2019-01-25T01:20:55.311Z,-3.50
2019-01-25T01:23:24.434Z,-3.50
2019-01-25T01:25:53.528Z,-3.50
2019-01-25T01:28:22.653Z,-3.50
2019-01-25T01:30:52.493Z,-3.50
2019-01-25T01:33:21.612Z,-3.50
2019-01-25T01:35:50.738Z,-3.50
2019-01-25T01:38:20.244Z,-3.50
2019-01-25T01:40:49.463Z,-3.50
2019-01-25T01:43:19.287Z,-3.50
2019-01-25T01:45:48.659Z,-3.60
2019-01-25T01:48:17.861Z,-3.60
2019-01-25T01:50:46.989Z,-3.60
2019-01-25T01:53:16.265Z,-3.60
2019-01-25T01:55:45.485Z,-3.60
2019-01-25T01:58:14.594Z,-3.60
2019-01-25T06:16:13.136Z,-3.00
2019-01-25T06:18:42.531Z,-3.00
2019-01-25T06:21:11.667Z,-3.00
2019-01-25T06:23:40.785Z,-3.00
2019-01-25T06:26:12.169Z,-3.00
2019-01-25T06:28:41.346Z,-3.00
2019-01-25T06:31:10.682Z,-3.00
2019-01-25T06:33:42.336Z,-3.00
2019-01-25T06:36:11.940Z,-3.00
2019-01-25T06:38:41.134Z,-2.90
2019-01-25T06:41:10.259Z,-2.90
2019-01-25T06:43:39.384Z,-2.90
2019-01-25T06:46:08.787Z,-2.90
2019-01-25T06:48:37.925Z,-2.90
2019-01-25T06:51:07.195Z,-2.90
2019-01-25T06:53:36.435Z,-2.90
2019-01-25T06:56:05.837Z,-2.90
2019-01-25T06:58:54.299Z,-2.90
2019-01-25T07:01:41.727Z,-2.90
2019-01-25T07:04:11.029Z,-2.90
2019-01-25T07:06:40.128Z,-2.90
2019-01-25T07:09:11.312Z,-2.90
2019-01-25T07:11:42.232Z,-2.90
2019-01-25T07:14:11.688Z,-2.90
2019-01-25T07:16:41.006Z,-2.90
2019-01-25T07:19:10.393Z,-2.90
2019-01-25T07:21:39.805Z,-2.80
2019-01-25T07:24:08.936Z,-2.80
2019-01-25T07:26:38.139Z,-2.80
2019-01-25T07:29:10.426Z,-2.80
2019-01-25T07:31:40.026Z,-2.80
2019-01-25T07:34:10.691Z,-2.80
2019-01-25T07:36:40.265Z,-2.80
2019-01-25T07:39:21.881Z,-2.80
2019-01-25T07:41:51.009Z,-2.70
2019-01-25T07:44:20.686Z,-2.70
2019-01-25T07:46:49.877Z,-2.70
2019-01-25T07:49:19.217Z,-2.70
2019-01-25T07:51:48.360Z,-2.70
2019-01-25T07:54:17.616Z,-2.60
2019-01-25T07:56:47.536Z,-2.60
2019-01-25T07:59:16.877Z,-2.60
2019-01-25T08:01:46.667Z,-2.60
2019-01-25T08:04:16.383Z,-2.60
2019-01-25T08:06:45.580Z,-2.50
2019-01-25T08:09:15.351Z,-2.50
2019-01-25T08:11:44.577Z,-2.50
2019-01-25T08:14:14.173Z,-2.50
2019-01-25T08:16:43.815Z,-2.50
2019-01-25T08:19:12.918Z,-2.50
2019-01-25T08:21:42.012Z,-2.40
2019-01-25T08:24:11.252Z,-2.40
2019-01-25T08:26:40.394Z,-2.40
2019-01-25T08:29:10.059Z,-2.30
2019-01-25T08:31:39.385Z,-2.30
2019-01-25T08:34:09.248Z,-2.30
2019-01-25T08:36:38.421Z,-2.30
2019-01-25T08:39:10.403Z,-2.20
2019-01-25T08:41:39.726Z,-2.20
2019-01-25T08:44:09.069Z,-2.10
2019-01-25T08:46:38.556Z,-2.10
2019-01-25T08:49:07.721Z,-2.10
2019-01-25T08:51:37.077Z,-2.10
2019-01-25T08:54:06.308Z,-2.10
2019-01-25T08:56:35.850Z,-2.00
2019-01-25T08:59:05.025Z,-1.90
2019-01-25T09:01:34.161Z,-1.90
2019-01-25T09:04:03.476Z,-1.80
2019-01-25T09:06:32.607Z,-1.90
2019-01-25T09:09:01.754Z,-1.90
2019-01-25T09:11:31.031Z,-1.90
2019-01-25T09:14:00.176Z,-1.80
2019-01-25T09:16:29.449Z,-1.80
2019-01-25T09:18:58.690Z,-1.70
2019-01-25T09:21:28.178Z,-1.70
2019-01-25T09:23:57.754Z,-1.60
2019-01-25T09:26:27.668Z,-1.60
2019-01-25T09:28:57.837Z,-1.60
2019-01-25T09:31:27.268Z,-1.60
2019-01-25T09:33:56.734Z,-1.60
2019-01-25T09:36:26.315Z,-1.60
2019-01-25T09:38:55.884Z,-1.60
2019-01-25T09:41:25.344Z,-1.60
2019-01-25T09:43:54.514Z,-1.60
2019-01-25T09:46:24.069Z,-1.50
2019-01-25T09:48:53.138Z,-1.50
2019-01-25T09:51:22.267Z,-1.40
2019-01-25T09:53:52.408Z,-1.30
2019-01-25T09:56:22.697Z,-1.20
2019-01-25T09:58:51.968Z,-1.20
2019-01-25T10:01:21.238Z,-1.20
2019-01-25T10:03:51.126Z,-1.20
2019-01-25T10:06:20.853Z,-1.10
2019-01-25T10:08:50.564Z,-1.10
2019-01-25T10:11:19.817Z,-1.10
2019-01-25T10:13:48.947Z,-1.10
2019-01-25T10:16:18.564Z,-1.10
2019-01-25T10:18:47.852Z,-1.10
2019-01-25T10:21:17.366Z,-1.10
2019-01-25T10:23:46.651Z,-1.00
2019-01-25T10:26:15.741Z,-1.00
2019-01-25T10:28:46.429Z,-1.10
2019-01-25T10:31:15.789Z,-1.00
2019-01-25T10:33:47.613Z,-1.00
2019-01-25T10:36:17.324Z,-1.00
2019-01-25T10:38:46.494Z,-0.90
2019-01-25T10:41:15.789Z,-0.90
2019-01-25T10:44:04.704Z,-0.90
2019-01-25T10:46:34.245Z,-0.80
2019-01-25T10:49:03.371Z,-0.70
2019-01-25T10:51:33.012Z,-0.70
2019-01-25T10:54:02.161Z,-0.60
2019-01-25T10:56:31.561Z,-0.60
2019-01-25T10:59:01.045Z,-0.60
2019-01-25T11:01:30.606Z,-0.70
2019-01-25T11:04:00.433Z,-0.70
2019-01-25T11:06:29.608Z,-0.70
2019-01-25T11:08:58.885Z,-0.70
2019-01-25T11:11:28.043Z,-0.50
2019-01-25T11:13:57.499Z,-0.30
2019-01-25T11:16:27.236Z,-0.20
2019-01-25T11:18:56.470Z,-0.20
2019-01-25T11:21:25.602Z,-0.20
2019-01-25T11:23:55.565Z,-0.10
2019-01-25T11:26:24.744Z,-0.10
2019-01-25T11:28:54.232Z,-0.20
2019-01-25T11:31:23.893Z,-0.30
2019-01-25T11:33:53.009Z,-0.30
2019-01-25T11:36:22.448Z,-0.40
2019-01-25T11:38:51.918Z,-0.50
2019-01-25T11:41:21.306Z,-0.50
2019-01-25T11:43:50.538Z,-0.40
2019-01-25T11:46:19.706Z,-0.30
2019-01-25T11:48:49.217Z,-0.30
2019-01-25T11:51:19.918Z,-0.40
2019-01-25T11:53:49.993Z,-0.40
2019-01-25T11:56:19.610Z,-0.40
2019-01-25T11:58:49.136Z,-0.30
2019-01-25T12:01:18.516Z,-0.20
2019-01-25T12:03:47.921Z,0.00
2019-01-25T12:06:17.092Z,0.10
2019-01-25T12:08:47.038Z,0.30
2019-01-25T12:11:16.734Z,0.30
2019-01-25T12:13:46.935Z,0.20
2019-01-25T12:16:16.104Z,0.20
2019-01-25T12:18:45.509Z,0.10
2019-01-25T12:21:14.712Z,0.10
2019-01-25T12:23:44.153Z,0.20
2019-01-25T12:26:13.288Z,0.30
2019-01-25T12:28:42.816Z,0.50
2019-01-25T12:31:11.971Z,0.60
2019-01-25T12:33:41.120Z,0.70
2019-01-25T12:36:10.205Z,0.90
2019-01-25T12:38:39.424Z,0.90
2019-01-25T12:41:11.031Z,0.80
2019-01-25T12:43:40.538Z,0.80
2019-01-25T12:46:10.251Z,0.70
2019-01-25T12:48:39.480Z,0.70
2019-01-25T12:51:30.712Z,0.70
2019-01-25T12:53:59.889Z,0.70
2019-01-25T12:56:29.088Z,0.50
2019-01-25T12:58:59.209Z,0.60
2019-01-25T13:01:34.873Z,0.50
2019-01-25T13:04:01.344Z,0.60
2019-01-25T13:06:30.588Z,0.60
2019-01-25T13:08:59.781Z,0.60
2019-01-25T13:11:28.873Z,0.60
2019-01-25T13:13:58.581Z,0.70
2019-01-25T13:16:27.773Z,0.70
2019-01-25T13:18:57.245Z,0.70
2019-01-25T13:21:26.329Z,0.70
2019-01-25T13:23:55.906Z,0.60
2019-01-25T13:26:25.336Z,0.70
2019-01-25T13:28:55.201Z,0.70
2019-01-25T13:31:24.493Z,0.70
2019-01-25T13:33:53.907Z,0.60
2019-01-25T13:36:24.234Z,0.60
2019-01-25T13:38:53.480Z,0.50
2019-01-25T13:41:27.278Z,0.60
2019-01-25T13:43:54.453Z,0.60
2019-01-25T13:46:23.528Z,0.60
2019-01-25T13:48:52.955Z,0.60
2019-01-25T13:51:22.447Z,0.60
2019-01-25T13:53:51.600Z,0.70
2019-01-25T13:56:20.741Z,0.70
2019-01-25T13:58:49.844Z,0.70
2019-01-25T14:01:19.061Z,0.70
2019-01-25T14:03:48.633Z,0.70
2019-01-25T14:06:18.627Z,0.70
2019-01-25T14:08:48.072Z,0.70
2019-01-25T14:11:17.560Z,0.60
2019-01-25T14:13:47.158Z,0.70
2019-01-25T14:16:16.341Z,0.60
2019-01-25T14:18:45.571Z,0.60
2019-01-25T14:21:14.962Z,0.60
2019-01-25T14:23:44.065Z,0.60
2019-01-25T14:26:13.549Z,0.60
2019-01-25T14:28:42.984Z,0.50
2019-01-25T14:31:12.141Z,0.50
2019-01-25T14:33:41.402Z,0.50
2019-01-25T14:36:12.296Z,0.50
2019-01-25T14:38:41.780Z,0.40
2019-01-25T14:41:11.177Z,0.40
2019-01-25T14:43:40.372Z,0.40
2019-01-25T14:46:09.528Z,0.50
2019-01-25T14:48:39.127Z,0.50
2019-01-25T14:51:08.546Z,0.40
2019-01-25T14:53:37.633Z,0.40
2019-01-25T14:56:06.825Z,0.40
2019-01-25T14:58:36.413Z,0.30
2019-01-25T15:01:05.605Z,0.30
2019-01-25T15:03:35.594Z,0.30
2019-01-25T15:06:05.553Z,0.30
2019-01-25T15:08:35.065Z,0.20
2019-01-25T15:11:04.971Z,0.20
2019-01-25T15:13:34.661Z,0.20
2019-01-25T15:16:03.817Z,0.20
2019-01-25T15:18:33.152Z,0.20
2019-01-25T15:21:02.436Z,0.20
2019-01-25T15:23:31.969Z,0.20
2019-01-25T15:26:01.445Z,0.20
2019-01-25T15:28:30.876Z,0.20
2019-01-25T15:31:00.044Z,0.20
2019-01-25T15:33:29.594Z,0.10
2019-01-25T15:35:59.173Z,0.10
2019-01-25T15:38:28.661Z,0.00
2019-01-25T15:40:59.680Z,-0.10
2019-01-25T15:43:28.973Z,-0.10
2019-01-25T15:45:58.101Z,-0.20
2019-01-25T15:48:27.235Z,-0.30
2019-01-25T15:50:56.796Z,-0.30
2019-01-25T15:53:26.009Z,-0.30
2019-01-25T15:55:55.878Z,-0.40
2019-01-25T15:58:25.069Z,-0.40
2019-01-25T16:00:55.297Z,-0.40
2019-01-25T16:03:24.750Z,-0.40
2019-01-25T16:05:54.090Z,-0.40
2019-01-25T16:08:23.394Z,-0.40
2019-01-25T16:10:52.590Z,-0.40
2019-01-25T16:13:22.375Z,-0.40
2019-01-25T16:15:51.673Z,-0.40
2019-01-25T16:18:21.080Z,-0.40
2019-01-25T16:20:50.277Z,-0.30
2019-01-25T16:23:19.841Z,-0.30
2019-01-25T16:25:49.404Z,-0.30
2019-01-25T16:28:18.549Z,-0.30
2019-01-25T16:30:47.869Z,-0.30
2019-01-25T16:33:17.370Z,-0.30
2019-01-25T16:35:46.503Z,-0.30
2019-01-25T16:38:15.709Z,-0.30
2019-01-25T16:40:44.953Z,-0.30
2019-01-25T16:43:14.089Z,-0.30
2019-01-25T16:45:44.577Z,-0.30
2019-01-25T16:48:14.079Z,-0.20
2019-01-25T16:50:43.525Z,-0.20
2019-01-25T16:53:13.909Z,-0.20
2019-01-25T16:55:43.123Z,-0.20
2019-01-25T16:58:12.745Z,-0.20
2019-01-25T17:00:44.769Z,-0.10
2019-01-25T17:03:13.941Z,-0.10
2019-01-25T17:05:43.197Z,-0.10
2019-01-25T17:08:12.752Z,-0.10
2019-01-25T17:10:42.363Z,-0.10
2019-01-25T17:13:11.662Z,0.00
2019-01-25T17:15:40.978Z,0.00
2019-01-25T17:18:10.322Z,0.10
2019-01-25T17:20:39.529Z,0.10
2019-01-25T17:23:08.709Z,0.10
2019-01-25T17:25:38.203Z,0.10
2019-01-25T17:28:09.099Z,0.20
2019-01-25T17:30:39.185Z,0.30
2019-01-25T17:33:08.379Z,0.40
2019-01-25T17:35:37.481Z,0.40
2019-01-25T17:38:07.579Z,0.50
2019-01-25T17:40:46.495Z,0.50
2019-01-25T17:43:12.752Z,0.50
2019-01-25T17:45:42.268Z,0.50
2019-01-25T17:48:14.428Z,0.60
2019-01-25T17:50:43.597Z,0.60
2019-01-25T17:53:12.853Z,0.60
2019-01-25T17:55:42.027Z,0.60
2019-01-25T17:58:11.189Z,0.60
2019-01-25T18:00:44.747Z,0.60
2019-01-25T18:03:14.347Z,0.60
2019-01-25T18:05:43.576Z,0.60
2019-01-25T18:08:12.779Z,0.60
2019-01-25T18:10:42.085Z,0.60
2019-01-25T18:13:11.294Z,0.60
2019-01-25T18:15:40.405Z,0.70
2019-01-25T18:18:09.619Z,0.70
2019-01-25T18:20:39.253Z,0.70
2019-01-25T18:23:08.487Z,0.70
2019-01-25T18:25:53.073Z,0.70
2019-01-25T18:28:25.758Z,0.60
2019-01-25T18:31:04.285Z,0.60
2019-01-25T18:33:33.498Z,0.60
2019-01-25T18:36:03.272Z,0.60
2019-01-25T18:38:32.573Z,0.60
2019-01-25T18:41:01.663Z,0.50
2019-01-25T18:43:30.937Z,0.50
2019-01-25T18:46:00.114Z,0.50
2019-01-25T18:48:29.951Z,0.50
2019-01-25T18:50:59.164Z,0.50
2019-01-25T18:53:28.482Z,0.50
2019-01-25T18:55:57.609Z,0.50
2019-01-25T18:58:27.053Z,0.50
2019-01-25T19:00:56.730Z,0.50
2019-01-25T19:03:26.123Z,0.40
2019-01-25T19:05:55.263Z,0.40
2019-01-25T19:08:24.394Z,0.40
2019-01-25T19:10:53.604Z,0.40
2019-01-25T19:13:23.266Z,0.40
2019-01-25T19:15:52.596Z,0.40
2019-01-25T19:18:22.652Z,0.40
2019-01-25T19:20:51.866Z,0.30
2019-01-25T19:23:21.062Z,0.30
2019-01-25T19:25:50.661Z,0.30
2019-01-25T19:28:19.845Z,0.30
2019-01-25T19:30:49.325Z,0.30
2019-01-25T19:33:18.453Z,0.20
2019-01-25T19:35:47.692Z,0.10
2019-01-25T19:38:19.212Z,0.10
2019-01-25T19:40:48.292Z,0.00
2019-01-25T19:43:17.778Z,0.00
2019-01-25T19:45:46.913Z,0.00
2019-01-25T19:48:16.059Z,-0.10
2019-01-25T19:50:45.515Z,-0.10
2019-01-25T19:53:14.653Z,-0.10
2019-01-25T19:55:44.953Z,-0.10
2019-01-25T19:58:16.919Z,-0.10
2019-01-25T20:00:48.103Z,-0.20
2019-01-25T20:03:17.284Z,-0.20
2019-01-25T20:05:46.561Z,-0.20
2019-01-25T20:08:16.129Z,-0.30
2019-01-25T20:10:45.628Z,-0.30
2019-01-25T20:13:15.322Z,-0.30
2019-01-25T20:15:45.218Z,-0.30
2019-01-25T20:18:14.400Z,-0.40
2019-01-25T20:20:43.940Z,-0.40
2019-01-25T20:23:13.097Z,-0.40
2019-01-25T20:25:42.268Z,-0.40
2019-01-25T20:28:11.995Z,-0.40
2019-01-25T20:30:41.306Z,-0.50
2019-01-25T20:33:10.635Z,-0.50
2019-01-25T20:35:41.859Z,-0.50
2019-01-25T20:38:12.521Z,-0.50
2019-01-25T20:40:54.150Z,-0.50
2019-01-25T20:43:23.410Z,-0.60
2019-01-25T20:45:52.913Z,-0.60
2019-01-25T20:48:22.339Z,-0.60
2019-01-25T20:50:51.449Z,-0.60
2019-01-25T20:53:20.549Z,-0.60
2019-01-25T20:55:49.722Z,-0.60
2019-01-25T20:58:18.833Z,-0.60
2019-01-25T21:00:48.455Z,-0.60
2019-01-25T21:03:18.201Z,-0.60
2019-01-25T21:05:47.332Z,-0.60
2019-01-25T21:08:35.845Z,-0.50
2019-01-25T21:11:05.324Z,-0.50
2019-01-25T21:13:34.428Z,-0.40
2019-01-25T21:16:03.617Z,-0.40
2019-01-25T21:18:32.713Z,-0.40
2019-01-25T21:21:02.151Z,-0.40
2019-01-25T21:23:31.310Z,-0.40
2019-01-25T21:26:00.474Z,-0.40
2019-01-25T21:28:30.757Z,-0.40
2019-01-25T21:31:00.044Z,-0.40
2019-01-25T21:33:29.257Z,-0.40
2019-01-25T21:35:58.465Z,-0.40
2019-01-25T21:38:27.636Z,-0.50
2019-01-25T21:40:57.276Z,-0.50
2019-01-25T21:43:26.533Z,-0.50
2019-01-25T21:45:55.770Z,-0.50
2019-01-25T21:48:24.868Z,-0.50
2019-01-25T21:50:54.024Z,-0.50
2019-01-25T21:53:23.364Z,-0.50
2019-01-25T21:55:52.508Z,-0.40
2019-01-25T21:58:21.783Z,-0.40
2019-01-25T22:00:51.325Z,-0.40
2019-01-25T22:03:20.865Z,-0.40
2019-01-25T22:05:50.088Z,-0.30
2019-01-25T22:08:19.176Z,-0.30
2019-01-25T22:10:49.821Z,-0.30
2019-01-25T22:13:19.124Z,-0.30
2019-01-25T22:15:51.002Z,-0.30
2019-01-25T22:18:19.675Z,-0.30
2019-01-25T22:20:49.172Z,-0.30
2019-01-25T22:23:18.615Z,-0.30
2019-01-25T22:25:47.832Z,-0.30
2019-01-25T22:28:17.681Z,-0.30
2019-01-25T22:30:47.175Z,-0.30
2019-01-25T22:33:16.448Z,-0.30
2019-01-25T22:35:45.691Z,-0.30
2019-01-25T22:38:14.845Z,-0.30
2019-01-25T22:40:44.036Z,-0.40
2019-01-25T22:43:13.385Z,-0.30
2019-01-25T22:45:42.539Z,-0.40
2019-01-25T22:48:11.653Z,-0.40
2019-01-25T22:50:41.406Z,-0.40
2019-01-25T22:53:10.873Z,-0.40
2019-01-25T22:55:39.977Z,-0.40
2019-01-25T22:58:09.239Z,-0.40
2019-01-25T23:01:01.346Z,-0.40
2019-01-25T23:03:49.571Z,-0.40
2019-01-25T23:06:39.276Z,-0.40
2019-01-25T23:09:17.665Z,-0.40
2019-01-25T23:11:46.791Z,-0.30
2019-01-25T23:14:15.953Z,-0.30
2019-01-25T23:16:45.193Z,-0.40
2019-01-25T23:19:14.734Z,-0.30
2019-01-25T23:21:43.921Z,-0.30
2019-01-25T23:24:13.097Z,-0.30
2019-01-25T23:26:42.617Z,-0.30
2019-01-25T23:29:11.717Z,-0.30
2019-01-25T23:31:41.156Z,-0.30
2019-01-25T23:34:10.410Z,-0.30
2019-01-25T23:36:40.144Z,-0.30
2019-01-25T23:39:11.767Z,-0.20
2019-01-25T23:41:41.473Z,-0.30
2019-01-25T23:44:11.401Z,-0.30
2019-01-25T23:46:40.674Z,-0.20
2019-01-25T23:49:10.270Z,-0.20
2019-01-25T23:51:39.465Z,-0.20
2019-01-25T23:54:08.565Z,-0.20
2019-01-25T23:56:37.705Z,-0.20
2019-01-25T23:59:06.808Z,-0.20
